sensor_id;sensor_type;location;lat;lon;timestamp;temperature;humidity
27848;DHT22;15212;48.830;8.730;2023-12-28T00:00:40;8.20;99.90
27848;DHT22;15212;48.830;8.730;2023-12-28T00:03:08;8.10;99.90
27848;DHT22;15212;48.830;8.730;2023-12-28T00:05:36;8.00;99.90
27848;DHT22;15212;48.830;8.730;2023-12-28T00:08:05;7.80;99.90
27848;DHT22;15212;48.830;8.730;2023-12-28T00:10:34;7.60;99.90
27848;DHT22;15212;48.830;8.730;2023-12-28T00:13:04;7.40;99.90
27848;DHT22;15212;48.830;8.730;2023-12-28T00:15:32;7.20;99.90
27848;DHT22;15212;48.830;8.730;2023-12-28T00:18:00;7.10;99.90
27848;DHT22;15212;48.830;8.730;2023-12-28T00:20:30;6.90;99.90
27848;DHT22;15212;48.830;8.730;2023-12-28T00:22:58;6.70;99.90
27848;DHT22;15212;48.830;8.730;2023-12-28T00:25:26;6.60;99.90
27848;DHT22;15212;48.830;8.730;2023-12-28T00:27:55;6.50;99.90
27848;DHT22;15212;48.830;8.730;2023-12-28T00:30:23;6.50;99.90
27848;DHT22;15212;48.830;8.730;2023-12-28T00:32:52;6.40;99.90
27848;DHT22;15212;48.830;8.730;2023-12-28T00:35:20;6.40;99.90
27848;DHT22;15212;48.830;8.730;2023-12-28T00:37:48;6.40;99.90
27848;DHT22;15212;48.830;8.730;2023-12-28T00:40:17;6.50;99.90
27848;DHT22;15212;48.830;8.730;2023-12-28T00:42:45;6.60;99.90
27848;DHT22;15212;48.830;8.730;2023-12-28T00:45:14;6.70;99.90
27848;DHT22;15212;48.830;8.730;2023-12-28T00:47:42;6.70;99.90
27848;DHT22;15212;48.830;8.730;2023-12-28T00:50:11;6.80;99.90
27848;DHT22;15212;48.830;8.730;2023-12-28T00:52:41;6.80;99.90
27848;DHT22;15212;48.830;8.730;2023-12-28T00:55:10;6.80;99.90
27848;DHT22;15212;48.830;8.730;2023-12-28T00:57:39;7.10;99.90
27848;DHT22;15212;48.830;8.730;2023-12-28T01:00:08;7.50;99.90
27848;DHT22;15212;48.830;8.730;2023-12-28T01:02:37;7.80;99.90
27848;DHT22;15212;48.830;8.730;2023-12-28T01:05:05;8.10;99.90
27848;DHT22;15212;48.830;8.730;2023-12-28T01:07:34;8.40;99.90
27848;DHT22;15212;48.830;8.730;2023-12-28T01:10:02;8.60;99.90
27848;DHT22;15212;48.830;8.730;2023-12-28T01:12:31;8.80;99.90
27848;DHT22;15212;48.830;8.730;2023-12-28T01:15:00;9.00;99.90
27848;DHT22;15212;48.830;8.730;2023-12-28T01:17:28;9.10;99.90
27848;DHT22;15212;48.830;8.730;2023-12-28T01:19:57;9.20;99.90
27848;DHT22;15212;48.830;8.730;2023-12-28T01:22:25;9.30;99.90
27848;DHT22;15212;48.830;8.730;2023-12-28T01:24:53;9.30;99.90
27848;DHT22;15212;48.830;8.730;2023-12-28T01:27:22;9.40;99.90
27848;DHT22;15212;48.830;8.730;2023-12-28T01:29:50;9.40;99.90
27848;DHT22;15212;48.830;8.730;2023-12-28T01:32:18;9.40;99.90
27848;DHT22;15212;48.830;8.730;2023-12-28T01:34:47;9.50;99.90
27848;DHT22;15212;48.830;8.730;2023-12-28T01:37:15;9.50;99.90
27848;DHT22;15212;48.830;8.730;2023-12-28T01:39:43;9.50;99.90
27848;DHT22;15212;48.830;8.730;2023-12-28T01:42:12;9.50;99.90
27848;DHT22;15212;48.830;8.730;2023-12-28T01:44:40;9.60;99.90
27848;DHT22;15212;48.830;8.730;2023-12-28T01:47:09;9.60;99.90
27848;DHT22;15212;48.830;8.730;2023-12-28T01:49:37;9.60;99.90
27848;DHT22;15212;48.830;8.730;2023-12-28T01:52:06;9.60;99.90
27848;DHT22;15212;48.830;8.730;2023-12-28T01:54:36;9.60;99.90
27848;DHT22;15212;48.830;8.730;2023-12-28T01:57:05;9.70;99.90
27848;DHT22;15212;48.830;8.730;2023-12-28T01:59:34;9.80;99.90
27848;DHT22;15212;48.830;8.730;2023-12-28T02:02:03;9.70;99.90
27848;DHT22;15212;48.830;8.730;2023-12-28T02:04:31;9.80;99.90
27848;DHT22;15212;48.830;8.730;2023-12-28T02:07:00;9.80;99.90
27848;DHT22;15212;48.830;8.730;2023-12-28T02:09:29;9.80;99.90
27848;DHT22;15212;48.830;8.730;2023-12-28T02:11:57;9.80;99.90
27848;DHT22;15212;48.830;8.730;2023-12-28T02:14:26;9.80;99.90
27848;DHT22;15212;48.830;8.730;2023-12-28T02:19:50;9.90;99.90
27848;DHT22;15212;48.830;8.730;2023-12-28T02:22:16;9.90;99.90
27848;DHT22;15212;48.830;8.730;2023-12-28T02:25:11;9.90;99.90
27848;DHT22;15212;48.830;8.730;2023-12-28T02:27:48;10.00;99.80
27848;DHT22;15212;48.830;8.730;2023-12-28T02:30:21;10.00;99.70
27848;DHT22;15212;48.830;8.730;2023-12-28T02:35:52;10.00;99.90
27848;DHT22;15212;48.830;8.730;2023-12-28T02:38:30;10.00;99.90
27848;DHT22;15212;48.830;8.730;2023-12-28T02:41:00;10.00;99.90
27848;DHT22;15212;48.830;8.730;2023-12-28T02:43:29;10.00;99.80
27848;DHT22;15212;48.830;8.730;2023-12-28T02:45:59;10.00;99.90
27848;DHT22;15212;48.830;8.730;2023-12-28T02:48:28;10.00;99.90
27848;DHT22;15212;48.830;8.730;2023-12-28T02:50:56;10.00;99.90
27848;DHT22;15212;48.830;8.730;2023-12-28T02:53:25;10.00;99.90
27848;DHT22;15212;48.830;8.730;2023-12-28T02:55:53;10.10;99.90
27848;DHT22;15212;48.830;8.730;2023-12-28T02:58:21;10.10;99.90
27848;DHT22;15212;48.830;8.730;2023-12-28T03:00:50;10.10;99.90
27848;DHT22;15212;48.830;8.730;2023-12-28T03:03:18;10.10;99.90
27848;DHT22;15212;48.830;8.730;2023-12-28T03:05:46;10.10;99.90
27848;DHT22;15212;48.830;8.730;2023-12-28T03:08:15;10.10;99.90
27848;DHT22;15212;48.830;8.730;2023-12-28T03:10:43;10.20;99.90
27848;DHT22;15212;48.830;8.730;2023-12-28T03:13:12;10.10;99.90
27848;DHT22;15212;48.830;8.730;2023-12-28T03:15:40;10.20;99.60
27848;DHT22;15212;48.830;8.730;2023-12-28T03:18:09;10.30;99.90
27848;DHT22;15212;48.830;8.730;2023-12-28T03:20:37;10.30;99.90
27848;DHT22;15212;48.830;8.730;2023-12-28T03:23:05;10.30;99.90
27848;DHT22;15212;48.830;8.730;2023-12-28T03:25:34;10.40;99.90
27848;DHT22;15212;48.830;8.730;2023-12-28T03:28:02;10.40;99.90
27848;DHT22;15212;48.830;8.730;2023-12-28T03:30:31;10.40;99.90
27848;DHT22;15212;48.830;8.730;2023-12-28T03:32:59;10.50;99.90
27848;DHT22;15212;48.830;8.730;2023-12-28T03:35:28;10.50;99.90
27848;DHT22;15212;48.830;8.730;2023-12-28T03:37:56;10.50;99.90
27848;DHT22;15212;48.830;8.730;2023-12-28T03:40:24;10.50;99.90
27848;DHT22;15212;48.830;8.730;2023-12-28T03:42:53;10.50;99.90
27848;DHT22;15212;48.830;8.730;2023-12-28T03:45:21;10.50;99.90
27848;DHT22;15212;48.830;8.730;2023-12-28T03:47:49;10.50;99.90
27848;DHT22;15212;48.830;8.730;2023-12-28T03:50:18;10.40;99.90
27848;DHT22;15212;48.830;8.730;2023-12-28T03:52:46;10.50;99.90
27848;DHT22;15212;48.830;8.730;2023-12-28T03:55:15;10.50;99.90
27848;DHT22;15212;48.830;8.730;2023-12-28T03:57:43;10.50;99.90
27848;DHT22;15212;48.830;8.730;2023-12-28T04:00:13;10.50;99.90
27848;DHT22;15212;48.830;8.730;2023-12-28T04:02:42;10.50;99.90
27848;DHT22;15212;48.830;8.730;2023-12-28T04:05:11;10.50;99.90
27848;DHT22;15212;48.830;8.730;2023-12-28T04:07:39;10.50;99.90
27848;DHT22;15212;48.830;8.730;2023-12-28T04:10:08;10.50;99.90
27848;DHT22;15212;48.830;8.730;2023-12-28T04:12:37;10.60;99.90
27848;DHT22;15212;48.830;8.730;2023-12-28T04:15:06;10.60;99.90
27848;DHT22;15212;48.830;8.730;2023-12-28T04:17:34;10.60;99.90
27848;DHT22;15212;48.830;8.730;2023-12-28T04:20:03;10.60;99.90
27848;DHT22;15212;48.830;8.730;2023-12-28T04:22:33;10.60;99.90
27848;DHT22;15212;48.830;8.730;2023-12-28T04:25:02;10.60;99.90
27848;DHT22;15212;48.830;8.730;2023-12-28T04:27:30;10.50;99.90
27848;DHT22;15212;48.830;8.730;2023-12-28T04:29:58;10.60;99.90
27848;DHT22;15212;48.830;8.730;2023-12-28T04:32:27;10.60;99.90
27848;DHT22;15212;48.830;8.730;2023-12-28T04:34:56;10.60;99.90
27848;DHT22;15212;48.830;8.730;2023-12-28T04:37:25;10.60;99.90
27848;DHT22;15212;48.830;8.730;2023-12-28T04:39:54;10.60;99.90
27848;DHT22;15212;48.830;8.730;2023-12-28T04:42:22;10.60;99.90
27848;DHT22;15212;48.830;8.730;2023-12-28T04:44:50;10.60;99.90
27848;DHT22;15212;48.830;8.730;2023-12-28T04:47:19;10.60;99.90
27848;DHT22;15212;48.830;8.730;2023-12-28T04:49:47;10.60;99.90
27848;DHT22;15212;48.830;8.730;2023-12-28T04:52:16;10.50;99.90
27848;DHT22;15212;48.830;8.730;2023-12-28T04:54:44;10.50;99.90
27848;DHT22;15212;48.830;8.730;2023-12-28T04:57:12;10.40;99.90
27848;DHT22;15212;48.830;8.730;2023-12-28T04:59:41;10.40;99.90
27848;DHT22;15212;48.830;8.730;2023-12-28T05:02:09;10.40;99.90
27848;DHT22;15212;48.830;8.730;2023-12-28T05:04:38;10.40;99.90
27848;DHT22;15212;48.830;8.730;2023-12-28T05:07:06;10.40;99.90
27848;DHT22;15212;48.830;8.730;2023-12-28T05:09:35;10.40;99.90
27848;DHT22;15212;48.830;8.730;2023-12-28T05:12:03;10.40;99.90
27848;DHT22;15212;48.830;8.730;2023-12-28T05:14:32;10.40;99.90
27848;DHT22;15212;48.830;8.730;2023-12-28T05:17:00;10.40;99.90
27848;DHT22;15212;48.830;8.730;2023-12-28T05:19:29;10.40;99.90
27848;DHT22;15212;48.830;8.730;2023-12-28T05:21:57;10.40;99.90
27848;DHT22;15212;48.830;8.730;2023-12-28T05:24:27;10.30;99.90
27848;DHT22;15212;48.830;8.730;2023-12-28T05:26:56;10.30;99.90
27848;DHT22;15212;48.830;8.730;2023-12-28T05:29:24;10.10;99.90
27848;DHT22;15212;48.830;8.730;2023-12-28T05:31:52;10.00;99.90
27848;DHT22;15212;48.830;8.730;2023-12-28T05:34:21;9.90;99.90
27848;DHT22;15212;48.830;8.730;2023-12-28T05:36:49;9.90;99.90
27848;DHT22;15212;48.830;8.730;2023-12-28T05:39:17;9.80;99.90
27848;DHT22;15212;48.830;8.730;2023-12-28T05:41:46;9.70;99.90
27848;DHT22;15212;48.830;8.730;2023-12-28T05:44:16;9.70;99.90
27848;DHT22;15212;48.830;8.730;2023-12-28T05:46:45;9.70;99.90
27848;DHT22;15212;48.830;8.730;2023-12-28T05:49:13;9.70;99.90
27848;DHT22;15212;48.830;8.730;2023-12-28T05:51:42;9.70;99.90
27848;DHT22;15212;48.830;8.730;2023-12-28T05:54:10;9.70;99.90
27848;DHT22;15212;48.830;8.730;2023-12-28T05:56:39;9.80;99.90
27848;DHT22;15212;48.830;8.730;2023-12-28T05:59:07;9.80;99.90
27848;DHT22;15212;48.830;8.730;2023-12-28T06:01:43;9.80;99.90
27848;DHT22;15212;48.830;8.730;2023-12-28T06:04:11;9.80;99.90
27848;DHT22;15212;48.830;8.730;2023-12-28T06:06:39;9.90;99.90
27848;DHT22;15212;48.830;8.730;2023-12-28T06:09:08;9.90;99.90
27848;DHT22;15212;48.830;8.730;2023-12-28T06:11:36;9.90;99.90
27848;DHT22;15212;48.830;8.730;2023-12-28T06:14:05;9.90;99.90
27848;DHT22;15212;48.830;8.730;2023-12-28T06:16:33;9.90;99.90
27848;DHT22;15212;48.830;8.730;2023-12-28T06:19:02;9.90;99.90
27848;DHT22;15212;48.830;8.730;2023-12-28T06:21:30;9.90;99.90
27848;DHT22;15212;48.830;8.730;2023-12-28T06:23:59;9.80;99.90
27848;DHT22;15212;48.830;8.730;2023-12-28T06:26:27;9.60;99.90
27848;DHT22;15212;48.830;8.730;2023-12-28T06:28:56;9.50;99.90
27848;DHT22;15212;48.830;8.730;2023-12-28T06:31:24;9.40;99.90
27848;DHT22;15212;48.830;8.730;2023-12-28T06:33:52;9.30;99.90
27848;DHT22;15212;48.830;8.730;2023-12-28T06:36:22;9.20;99.90
27848;DHT22;15212;48.830;8.730;2023-12-28T06:38:51;9.10;99.90
27848;DHT22;15212;48.830;8.730;2023-12-28T06:41:19;8.90;99.90
27848;DHT22;15212;48.830;8.730;2023-12-28T06:43:48;8.90;99.90
27848;DHT22;15212;48.830;8.730;2023-12-28T06:46:17;8.80;99.90
27848;DHT22;15212;48.830;8.730;2023-12-28T06:48:46;8.70;99.90
27848;DHT22;15212;48.830;8.730;2023-12-28T06:51:21;8.70;99.90
27848;DHT22;15212;48.830;8.730;2023-12-28T06:53:49;8.60;99.90
27848;DHT22;15212;48.830;8.730;2023-12-28T06:56:18;8.50;99.90
27848;DHT22;15212;48.830;8.730;2023-12-28T06:58:46;8.50;99.90
27848;DHT22;15212;48.830;8.730;2023-12-28T07:01:15;8.50;99.90
27848;DHT22;15212;48.830;8.730;2023-12-28T07:03:43;8.50;99.90
27848;DHT22;15212;48.830;8.730;2023-12-28T07:06:13;8.50;99.90
27848;DHT22;15212;48.830;8.730;2023-12-28T07:08:41;8.50;99.90
27848;DHT22;15212;48.830;8.730;2023-12-28T07:11:10;8.50;99.90
27848;DHT22;15212;48.830;8.730;2023-12-28T07:13:38;8.50;99.90
27848;DHT22;15212;48.830;8.730;2023-12-28T07:16:07;8.50;99.90
27848;DHT22;15212;48.830;8.730;2023-12-28T07:18:35;8.60;99.90
27848;DHT22;15212;48.830;8.730;2023-12-28T07:21:04;8.60;99.90
27848;DHT22;15212;48.830;8.730;2023-12-28T07:23:34;8.60;99.90
27848;DHT22;15212;48.830;8.730;2023-12-28T07:26:03;8.70;99.90
27848;DHT22;15212;48.830;8.730;2023-12-28T07:28:32;8.60;99.90
27848;DHT22;15212;48.830;8.730;2023-12-28T07:31:00;8.60;99.90
27848;DHT22;15212;48.830;8.730;2023-12-28T07:33:28;8.60;99.90
27848;DHT22;15212;48.830;8.730;2023-12-28T07:35:57;8.60;99.90
27848;DHT22;15212;48.830;8.730;2023-12-28T07:38:27;8.70;99.90
27848;DHT22;15212;48.830;8.730;2023-12-28T07:40:55;8.60;99.90
27848;DHT22;15212;48.830;8.730;2023-12-28T07:43:24;8.60;99.90
27848;DHT22;15212;48.830;8.730;2023-12-28T07:45:52;8.60;99.90
27848;DHT22;15212;48.830;8.730;2023-12-28T07:48:21;8.60;99.90
27848;DHT22;15212;48.830;8.730;2023-12-28T07:50:49;8.60;99.90
27848;DHT22;15212;48.830;8.730;2023-12-28T07:53:18;8.60;99.90
27848;DHT22;15212;48.830;8.730;2023-12-28T07:55:46;8.50;99.90
27848;DHT22;15212;48.830;8.730;2023-12-28T07:58:15;8.50;99.90
27848;DHT22;15212;48.830;8.730;2023-12-28T08:00:43;8.50;99.90
27848;DHT22;15212;48.830;8.730;2023-12-28T08:03:12;8.40;99.90
27848;DHT22;15212;48.830;8.730;2023-12-28T08:05:42;8.40;99.90
27848;DHT22;15212;48.830;8.730;2023-12-28T08:08:10;8.30;99.90
27848;DHT22;15212;48.830;8.730;2023-12-28T08:10:39;8.30;99.90
27848;DHT22;15212;48.830;8.730;2023-12-28T08:13:07;8.30;99.90
27848;DHT22;15212;48.830;8.730;2023-12-28T08:15:35;8.30;99.90
27848;DHT22;15212;48.830;8.730;2023-12-28T08:18:04;8.30;99.90
27848;DHT22;15212;48.830;8.730;2023-12-28T08:20:32;8.30;99.90
27848;DHT22;15212;48.830;8.730;2023-12-28T08:23:01;8.30;99.90
27848;DHT22;15212;48.830;8.730;2023-12-28T08:25:29;8.20;99.90
27848;DHT22;15212;48.830;8.730;2023-12-28T08:27:57;8.20;99.90
27848;DHT22;15212;48.830;8.730;2023-12-28T08:30:26;8.20;99.90
27848;DHT22;15212;48.830;8.730;2023-12-28T08:32:54;8.20;99.90
27848;DHT22;15212;48.830;8.730;2023-12-28T08:35:22;8.20;99.90
27848;DHT22;15212;48.830;8.730;2023-12-28T08:37:51;8.10;99.90
27848;DHT22;15212;48.830;8.730;2023-12-28T08:40:19;8.10;99.90
27848;DHT22;15212;48.830;8.730;2023-12-28T08:42:47;8.10;99.90
27848;DHT22;15212;48.830;8.730;2023-12-28T08:45:16;8.20;99.90
27848;DHT22;15212;48.830;8.730;2023-12-28T08:47:44;8.20;99.90
27848;DHT22;15212;48.830;8.730;2023-12-28T08:50:13;8.20;99.90
27848;DHT22;15212;48.830;8.730;2023-12-28T08:52:42;8.20;99.90
27848;DHT22;15212;48.830;8.730;2023-12-28T08:55:11;8.30;99.90
27848;DHT22;15212;48.830;8.730;2023-12-28T08:57:39;8.20;99.90
27848;DHT22;15212;48.830;8.730;2023-12-28T09:00:08;8.30;99.90
27848;DHT22;15212;48.830;8.730;2023-12-28T09:02:37;8.30;99.90
27848;DHT22;15212;48.830;8.730;2023-12-28T09:05:06;8.30;99.90
27848;DHT22;15212;48.830;8.730;2023-12-28T09:07:34;8.40;99.90
27848;DHT22;15212;48.830;8.730;2023-12-28T09:10:05;8.40;99.90
27848;DHT22;15212;48.830;8.730;2023-12-28T09:12:33;8.40;99.90
27848;DHT22;15212;48.830;8.730;2023-12-28T09:15:02;8.40;99.90
27848;DHT22;15212;48.830;8.730;2023-12-28T09:17:31;8.40;99.90
27848;DHT22;15212;48.830;8.730;2023-12-28T09:20:00;8.50;99.90
27848;DHT22;15212;48.830;8.730;2023-12-28T09:22:29;8.50;99.90
27848;DHT22;15212;48.830;8.730;2023-12-28T09:24:58;8.50;99.90
27848;DHT22;15212;48.830;8.730;2023-12-28T09:27:26;8.50;99.90
27848;DHT22;15212;48.830;8.730;2023-12-28T09:29:54;8.60;99.90
27848;DHT22;15212;48.830;8.730;2023-12-28T09:32:23;8.60;99.90
27848;DHT22;15212;48.830;8.730;2023-12-28T09:34:51;8.70;99.90
27848;DHT22;15212;48.830;8.730;2023-12-28T09:37:20;8.70;99.90
27848;DHT22;15212;48.830;8.730;2023-12-28T09:39:48;8.80;99.90
27848;DHT22;15212;48.830;8.730;2023-12-28T09:42:22;8.90;99.90
27848;DHT22;15212;48.830;8.730;2023-12-28T09:44:49;8.90;99.90
27848;DHT22;15212;48.830;8.730;2023-12-28T09:47:18;8.90;99.90
27848;DHT22;15212;48.830;8.730;2023-12-28T09:49:47;8.90;99.90
27848;DHT22;15212;48.830;8.730;2023-12-28T09:52:16;8.80;99.90
27848;DHT22;15212;48.830;8.730;2023-12-28T09:54:44;8.80;99.90
27848;DHT22;15212;48.830;8.730;2023-12-28T09:57:13;8.70;99.90
27848;DHT22;15212;48.830;8.730;2023-12-28T09:59:42;8.70;99.90
27848;DHT22;15212;48.830;8.730;2023-12-28T10:02:11;8.70;99.90
27848;DHT22;15212;48.830;8.730;2023-12-28T10:04:40;8.80;99.90
27848;DHT22;15212;48.830;8.730;2023-12-28T10:07:08;8.80;99.90
27848;DHT22;15212;48.830;8.730;2023-12-28T10:09:37;8.70;99.90
27848;DHT22;15212;48.830;8.730;2023-12-28T10:12:05;8.70;99.90
27848;DHT22;15212;48.830;8.730;2023-12-28T10:14:35;8.70;99.90
27848;DHT22;15212;48.830;8.730;2023-12-28T10:17:03;8.70;99.90
27848;DHT22;15212;48.830;8.730;2023-12-28T10:19:32;8.60;99.90
27848;DHT22;15212;48.830;8.730;2023-12-28T10:22:01;8.60;99.90
27848;DHT22;15212;48.830;8.730;2023-12-28T10:24:29;8.60;99.90
27848;DHT22;15212;48.830;8.730;2023-12-28T10:26:57;8.60;99.90
27848;DHT22;15212;48.830;8.730;2023-12-28T10:29:26;8.60;99.90
27848;DHT22;15212;48.830;8.730;2023-12-28T10:31:54;8.70;99.90
27848;DHT22;15212;48.830;8.730;2023-12-28T10:34:23;8.70;99.90
27848;DHT22;15212;48.830;8.730;2023-12-28T10:36:52;8.80;99.90
27848;DHT22;15212;48.830;8.730;2023-12-28T10:39:23;8.90;99.90
27848;DHT22;15212;48.830;8.730;2023-12-28T10:41:55;9.00;99.90
27848;DHT22;15212;48.830;8.730;2023-12-28T10:44:23;9.10;99.90
27848;DHT22;15212;48.830;8.730;2023-12-28T10:46:57;9.10;99.90
27848;DHT22;15212;48.830;8.730;2023-12-28T10:49:25;9.10;99.90
27848;DHT22;15212;48.830;8.730;2023-12-28T10:51:54;9.10;99.90
27848;DHT22;15212;48.830;8.730;2023-12-28T10:54:37;9.10;99.90
27848;DHT22;15212;48.830;8.730;2023-12-28T10:57:23;9.00;99.90
27848;DHT22;15212;48.830;8.730;2023-12-28T11:00:08;9.00;99.90
27848;DHT22;15212;48.830;8.730;2023-12-28T11:02:45;9.00;99.90
27848;DHT22;15212;48.830;8.730;2023-12-28T11:05:12;9.00;99.90
27848;DHT22;15212;48.830;8.730;2023-12-28T11:07:41;9.00;99.90
27848;DHT22;15212;48.830;8.730;2023-12-28T11:10:11;9.00;99.90
27848;DHT22;15212;48.830;8.730;2023-12-28T11:12:41;9.00;99.90
27848;DHT22;15212;48.830;8.730;2023-12-28T11:15:11;9.00;99.90
27848;DHT22;15212;48.830;8.730;2023-12-28T11:17:41;9.00;99.90
27848;DHT22;15212;48.830;8.730;2023-12-28T11:20:12;9.00;99.90
27848;DHT22;15212;48.830;8.730;2023-12-28T11:22:42;9.00;99.90
27848;DHT22;15212;48.830;8.730;2023-12-28T11:25:17;9.00;99.90
27848;DHT22;15212;48.830;8.730;2023-12-28T11:27:46;9.00;99.90
27848;DHT22;15212;48.830;8.730;2023-12-28T11:30:15;9.10;99.90
27848;DHT22;15212;48.830;8.730;2023-12-28T11:32:44;9.10;99.90
27848;DHT22;15212;48.830;8.730;2023-12-28T11:35:12;9.10;99.90
27848;DHT22;15212;48.830;8.730;2023-12-28T11:37:46;9.20;99.90
27848;DHT22;15212;48.830;8.730;2023-12-28T11:40:19;9.20;99.90
27848;DHT22;15212;48.830;8.730;2023-12-28T11:42:52;9.20;99.90
27848;DHT22;15212;48.830;8.730;2023-12-28T11:45:23;9.30;99.90
27848;DHT22;15212;48.830;8.730;2023-12-28T11:48:04;9.30;99.90
27848;DHT22;15212;48.830;8.730;2023-12-28T11:50:33;9.30;99.90
27848;DHT22;15212;48.830;8.730;2023-12-28T11:53:01;9.40;99.90
27848;DHT22;15212;48.830;8.730;2023-12-28T11:55:30;9.40;99.90
27848;DHT22;15212;48.830;8.730;2023-12-28T11:57:59;9.40;99.90
27848;DHT22;15212;48.830;8.730;2023-12-28T12:00:27;9.50;99.90
27848;DHT22;15212;48.830;8.730;2023-12-28T12:02:57;9.40;99.90
27848;DHT22;15212;48.830;8.730;2023-12-28T12:05:26;9.40;99.90
27848;DHT22;15212;48.830;8.730;2023-12-28T12:07:55;9.50;99.90
27848;DHT22;15212;48.830;8.730;2023-12-28T12:10:24;9.60;99.90
27848;DHT22;15212;48.830;8.730;2023-12-28T12:12:53;9.60;99.90
27848;DHT22;15212;48.830;8.730;2023-12-28T12:15:22;9.60;99.90
27848;DHT22;15212;48.830;8.730;2023-12-28T12:17:50;9.60;99.90
27848;DHT22;15212;48.830;8.730;2023-12-28T12:20:20;9.70;99.90
27848;DHT22;15212;48.830;8.730;2023-12-28T12:22:49;9.70;99.90
27848;DHT22;15212;48.830;8.730;2023-12-28T12:25:18;9.70;99.90
27848;DHT22;15212;48.830;8.730;2023-12-28T12:27:47;9.70;99.90
27848;DHT22;15212;48.830;8.730;2023-12-28T12:30:15;9.60;99.90
27848;DHT22;15212;48.830;8.730;2023-12-28T12:32:44;9.60;99.90
27848;DHT22;15212;48.830;8.730;2023-12-28T12:35:12;9.50;99.90
27848;DHT22;15212;48.830;8.730;2023-12-28T12:37:41;9.50;99.90
27848;DHT22;15212;48.830;8.730;2023-12-28T12:40:10;9.50;99.90
27848;DHT22;15212;48.830;8.730;2023-12-28T12:42:42;9.50;99.90
27848;DHT22;15212;48.830;8.730;2023-12-28T12:45:10;9.50;99.90
27848;DHT22;15212;48.830;8.730;2023-12-28T12:47:40;9.50;99.90
27848;DHT22;15212;48.830;8.730;2023-12-28T12:50:10;9.40;99.90
27848;DHT22;15212;48.830;8.730;2023-12-28T12:52:39;9.40;99.90
27848;DHT22;15212;48.830;8.730;2023-12-28T12:55:12;9.40;99.90
27848;DHT22;15212;48.830;8.730;2023-12-28T12:57:40;9.40;99.90
27848;DHT22;15212;48.830;8.730;2023-12-28T13:00:12;9.40;99.90
27848;DHT22;15212;48.830;8.730;2023-12-28T13:02:41;9.40;99.90
27848;DHT22;15212;48.830;8.730;2023-12-28T13:05:10;9.40;99.90
27848;DHT22;15212;48.830;8.730;2023-12-28T13:07:39;9.40;99.90
27848;DHT22;15212;48.830;8.730;2023-12-28T13:10:08;9.30;99.90
27848;DHT22;15212;48.830;8.730;2023-12-28T13:12:37;9.30;99.90
27848;DHT22;15212;48.830;8.730;2023-12-28T13:15:06;9.30;99.90
27848;DHT22;15212;48.830;8.730;2023-12-28T13:17:36;9.30;99.90
27848;DHT22;15212;48.830;8.730;2023-12-28T13:20:06;9.20;99.90
27848;DHT22;15212;48.830;8.730;2023-12-28T13:22:34;9.20;99.90
27848;DHT22;15212;48.830;8.730;2023-12-28T13:25:03;9.10;99.90
27848;DHT22;15212;48.830;8.730;2023-12-28T13:27:32;9.10;99.90
27848;DHT22;15212;48.830;8.730;2023-12-28T13:30:00;9.00;99.90
27848;DHT22;15212;48.830;8.730;2023-12-28T13:32:29;9.00;99.90
27848;DHT22;15212;48.830;8.730;2023-12-28T13:34:58;8.90;99.90
27848;DHT22;15212;48.830;8.730;2023-12-28T13:37:26;8.80;99.90
27848;DHT22;15212;48.830;8.730;2023-12-28T13:39:54;8.80;99.90
27848;DHT22;15212;48.830;8.730;2023-12-28T13:42:23;8.80;99.90
27848;DHT22;15212;48.830;8.730;2023-12-28T13:44:51;8.70;99.90
27848;DHT22;15212;48.830;8.730;2023-12-28T13:47:19;8.70;99.90
27848;DHT22;15212;48.830;8.730;2023-12-28T13:49:48;8.70;99.90
27848;DHT22;15212;48.830;8.730;2023-12-28T13:52:16;8.70;99.90
27848;DHT22;15212;48.830;8.730;2023-12-28T13:54:45;8.70;99.90
27848;DHT22;15212;48.830;8.730;2023-12-28T13:57:13;8.70;99.90
27848;DHT22;15212;48.830;8.730;2023-12-28T13:59:41;8.70;99.90
27848;DHT22;15212;48.830;8.730;2023-12-28T14:02:10;8.60;99.90
27848;DHT22;15212;48.830;8.730;2023-12-28T14:04:38;8.70;99.90
27848;DHT22;15212;48.830;8.730;2023-12-28T14:07:06;8.70;99.90
27848;DHT22;15212;48.830;8.730;2023-12-28T14:09:35;8.70;99.90
27848;DHT22;15212;48.830;8.730;2023-12-28T14:12:04;8.70;99.90
27848;DHT22;15212;48.830;8.730;2023-12-28T14:14:33;8.70;99.90
27848;DHT22;15212;48.830;8.730;2023-12-28T14:17:01;8.70;99.90
27848;DHT22;15212;48.830;8.730;2023-12-28T14:19:31;8.70;99.90
27848;DHT22;15212;48.830;8.730;2023-12-28T14:22:00;8.70;99.90
27848;DHT22;15212;48.830;8.730;2023-12-28T14:24:29;8.70;99.90
27848;DHT22;15212;48.830;8.730;2023-12-28T14:26:58;8.80;99.90
27848;DHT22;15212;48.830;8.730;2023-12-28T14:29:26;8.80;99.90
27848;DHT22;15212;48.830;8.730;2023-12-28T14:31:55;8.90;99.90
27848;DHT22;15212;48.830;8.730;2023-12-28T14:34:24;8.90;99.90
27848;DHT22;15212;48.830;8.730;2023-12-28T14:36:53;8.90;99.90
27848;DHT22;15212;48.830;8.730;2023-12-28T14:39:22;8.90;99.90
27848;DHT22;15212;48.830;8.730;2023-12-28T14:41:51;8.80;99.90
27848;DHT22;15212;48.830;8.730;2023-12-28T14:44:19;8.80;99.90
27848;DHT22;15212;48.830;8.730;2023-12-28T14:46:48;8.80;99.90
27848;DHT22;15212;48.830;8.730;2023-12-28T14:49:16;8.80;99.90
27848;DHT22;15212;48.830;8.730;2023-12-28T14:51:44;8.80;99.90
27848;DHT22;15212;48.830;8.730;2023-12-28T14:54:13;8.80;99.90
27848;DHT22;15212;48.830;8.730;2023-12-28T14:56:41;8.80;99.90
27848;DHT22;15212;48.830;8.730;2023-12-28T14:59:09;8.70;99.90
27848;DHT22;15212;48.830;8.730;2023-12-28T15:01:38;8.80;99.90
27848;DHT22;15212;48.830;8.730;2023-12-28T15:04:06;8.70;99.90
27848;DHT22;15212;48.830;8.730;2023-12-28T15:06:35;8.70;99.90
27848;DHT22;15212;48.830;8.730;2023-12-28T15:09:03;8.70;99.90
27848;DHT22;15212;48.830;8.730;2023-12-28T15:11:32;8.70;99.90
27848;DHT22;15212;48.830;8.730;2023-12-28T15:14:00;8.70;99.90
27848;DHT22;15212;48.830;8.730;2023-12-28T15:16:29;8.70;99.90
27848;DHT22;15212;48.830;8.730;2023-12-28T15:18:58;8.70;99.90
27848;DHT22;15212;48.830;8.730;2023-12-28T15:21:27;8.70;99.90
27848;DHT22;15212;48.830;8.730;2023-12-28T15:23:56;8.70;99.90
27848;DHT22;15212;48.830;8.730;2023-12-28T15:26:24;8.60;99.90
27848;DHT22;15212;48.830;8.730;2023-12-28T15:28:53;8.70;99.90
27848;DHT22;15212;48.830;8.730;2023-12-28T15:31:22;8.70;99.90
27848;DHT22;15212;48.830;8.730;2023-12-28T15:33:51;8.70;99.90
27848;DHT22;15212;48.830;8.730;2023-12-28T15:36:19;8.70;99.90
27848;DHT22;15212;48.830;8.730;2023-12-28T15:38:48;8.70;99.90
27848;DHT22;15212;48.830;8.730;2023-12-28T15:41:16;8.70;99.90
27848;DHT22;15212;48.830;8.730;2023-12-28T15:43:44;8.70;99.90
27848;DHT22;15212;48.830;8.730;2023-12-28T15:46:13;8.70;99.90
27848;DHT22;15212;48.830;8.730;2023-12-28T15:48:41;8.70;99.90
27848;DHT22;15212;48.830;8.730;2023-12-28T15:51:09;8.70;99.90
27848;DHT22;15212;48.830;8.730;2023-12-28T15:53:38;8.70;99.90
27848;DHT22;15212;48.830;8.730;2023-12-28T15:56:07;8.80;99.90
27848;DHT22;15212;48.830;8.730;2023-12-28T15:58:35;8.70;99.90